Time;durP1;ratioP1;P1;durP2;ratioP2;P2;SDS_P1;SDS_P2;PMS_P1;PMS_P2;Temp;Humidity;BMP_temperature;BMP_pressure;BME280_temperature;BME280_humidity;BME280_pressure;Samples;Min_cycle;Max_cycle;Signal;HPM_P1;HPM_P2
2022/01/02 00:01:05;;;;;;;23.83;13.13;;;;;;;;;;5034687;28;20025;-56
2022/01/02 00:03:35;;;;;;;23.45;12.98;;;;;;;;;;5034305;28;20179;-53
2022/01/02 00:06:03;;;;;;;23.00;12.55;;;;;;;;;;5034971;28;20065;-51
2022/01/02 00:08:31;;;;;;;20.83;12.23;;;;;;;;;;5034512;28;20021;-55
2022/01/02 00:10:59;;;;;;;19.70;11.10;;;;;;;;;;5033708;28;20033;-53
2022/01/02 00:13:29;;;;;;;22.98;10.80;;;;;;;;;;5034378;28;20026;-50
2022/01/02 00:16:08;;;;;;;17.13;9.75;;;;;;;;;;5034289;28;20026;-55
2022/01/02 00:18:38;;;;;;;19.17;10.75;;;;;;;;;;5034151;28;20036;-53
2022/01/02 00:21:10;;;;;;;18.55;10.30;;;;;;;;;;5034181;28;20494;-53
2022/01/02 00:23:59;;;;;;;19.15;10.20;;;;;;;;;;5034357;28;20030;-54
2022/01/02 00:26:36;;;;;;;19.60;10.02;;;;;;;;;;5033612;28;20049;-53
2022/01/02 00:29:05;;;;;;;17.17;9.40;;;;;;;;;;5034207;28;20021;-52
2022/01/02 00:31:32;;;;;;;19.00;10.10;;;;;;;;;;5033919;28;20052;-52
2022/01/02 00:33:58;;;;;;;18.70;10.88;;;;;;;;;;5049148;28;20022;-55
2022/01/02 00:36:24;;;;;;;21.83;11.60;;;;;;;;;;5034309;28;20021;-50
2022/01/02 00:38:51;;;;;;;19.98;11.15;;;;;;;;;;5033397;28;20562;-51
2022/01/02 00:41:23;;;;;;;21.40;11.63;;;;;;;;;;5033619;28;20054;-55
2022/01/02 00:43:55;;;;;;;24.73;12.50;;;;;;;;;;5032902;28;20487;-58
2022/01/02 00:46:22;;;;;;;22.08;11.88;;;;;;;;;;5031755;28;20096;-60
2022/01/02 00:48:50;;;;;;;22.30;12.32;;;;;;;;;;5033182;28;20026;-53
2022/01/02 00:51:27;;;;;;;25.55;14.32;;;;;;;;;;5029818;28;20033;-53
2022/01/02 00:53:55;;;;;;;22.33;13.80;;;;;;;;;;5037092;28;20061;-51
2022/01/02 00:56:31;;;;;;;23.85;13.57;;;;;;;;;;5032304;28;21160;-55
2022/01/02 00:59:00;;;;;;;27.85;15.65;;;;;;;;;;5031745;28;20013;-53
2022/01/02 01:01:30;;;;;;;29.02;14.68;;;;;;;;;;5029940;28;20022;-53
2022/01/02 01:03:57;;;;;;;26.30;14.27;;;;;;;;;;5033268;28;20048;-52
2022/01/02 01:06:25;;;;;;;23.08;12.90;;;;;;;;;;5032575;28;20026;-56
2022/01/02 01:08:57;;;;;;;25.17;13.30;;;;;;;;;;5032548;28;20484;-55
2022/01/02 01:11:27;;;;;;;23.52;13.18;;;;;;;;;;5031164;28;20109;-55
2022/01/02 01:13:57;;;;;;;31.27;13.27;;;;;;;;;;5032568;28;20416;-56
2022/01/02 01:16:23;;;;;;;22.40;11.57;;;;;;;;;;5033581;28;20143;-53
2022/01/02 01:18:50;;;;;;;25.58;13.43;;;;;;;;;;5033124;28;20096;-56
2022/01/02 01:21:16;;;;;;;22.38;11.88;;;;;;;;;;5032672;28;20029;-53
2022/01/02 01:23:43;;;;;;;19.45;12.02;;;;;;;;;;5033390;28;20029;-54
2022/01/02 01:26:10;;;;;;;25.67;12.90;;;;;;;;;;5033413;28;20021;-55
2022/01/02 01:28:37;;;;;;;21.92;12.68;;;;;;;;;;5032704;28;20022;-55
2022/01/02 01:31:03;;;;;;;25.40;12.85;;;;;;;;;;5033417;28;20030;-57
2022/01/02 01:33:29;;;;;;;26.50;11.90;;;;;;;;;;5033541;28;20456;-54
2022/01/02 01:35:56;;;;;;;21.25;11.80;;;;;;;;;;5033057;28;20036;-52
2022/01/02 01:38:22;;;;;;;20.92;11.57;;;;;;;;;;5033546;28;20026;-54
2022/01/02 01:40:52;;;;;;;22.45;11.48;;;;;;;;;;5033565;28;20029;-53
2022/01/02 01:43:23;;;;;;;21.42;11.38;;;;;;;;;;5032646;28;20045;-53
2022/01/02 01:45:49;;;;;;;19.47;10.77;;;;;;;;;;5032975;28;20028;-53
2022/01/02 01:48:15;;;;;;;19.08;10.85;;;;;;;;;;5033248;28;20021;-51
2022/01/02 01:50:43;;;;;;;18.42;10.43;;;;;;;;;;5032803;28;20108;-51
2022/01/02 01:53:10;;;;;;;21.30;10.43;;;;;;;;;;5033165;28;20029;-52
2022/01/02 01:55:37;;;;;;;22.33;11.45;;;;;;;;;;5032854;28;20168;-54
2022/01/02 01:58:04;;;;;;;19.63;10.48;;;;;;;;;;5033617;28;20060;-52
2022/01/02 02:00:33;;;;;;;24.25;11.07;;;;;;;;;;5032879;28;20083;-54
2022/01/02 02:03:00;;;;;;;22.10;10.60;;;;;;;;;;5032479;28;20110;-52
2022/01/02 02:05:26;;;;;;;20.27;10.88;;;;;;;;;;5032468;28;20014;-54
2022/01/02 02:07:52;;;;;;;20.50;10.15;;;;;;;;;;5031107;28;20029;-53
2022/01/02 02:12:50;;;;;;;22.85;11.93;;;;;;;;;;5035925;28;20399;-51
2022/01/02 02:15:17;;;;;;;22.40;11.25;;;;;;;;;;5035983;28;20497;-51
2022/01/02 02:17:44;;;;;;;24.08;13.20;;;;;;;;;;5035965;28;20388;-52
2022/01/02 02:20:19;;;;;;;24.17;12.15;;;;;;;;;;5036377;28;20029;-52
2022/01/02 02:22:48;;;;;;;52.08;24.02;;;;;;;;;;5036724;28;20029;-53
2022/01/02 02:25:15;;;;;;;64.00;31.55;;;;;;;;;;5036017;28;20025;-52
2022/01/02 02:27:48;;;;;;;65.03;31.25;;;;;;;;;;5036166;28;20510;-54
2022/01/02 02:30:14;;;;;;;51.35;27.50;;;;;;;;;;5035807;28;20072;-50
2022/01/02 02:32:40;;;;;;;49.88;26.67;;;;;;;;;;5035793;28;20030;-50
2022/01/02 02:35:06;;;;;;;45.78;21.73;;;;;;;;;;5036156;28;20029;-50
2022/01/02 02:37:32;;;;;;;31.35;15.60;;;;;;;;;;5035576;28;20033;-56
2022/01/02 02:39:59;;;;;;;33.38;18.38;;;;;;;;;;5036529;28;20095;-52
2022/01/02 02:42:35;;;;;;;33.83;18.35;;;;;;;;;;5036498;28;20042;-54
2022/01/02 02:50:45;;;;;;;33.65;16.38;;;;;;;;;;5035887;28;20407;-55
2022/01/02 02:53:12;;;;;;;29.73;15.88;;;;;;;;;;5035405;28;20036;-53
2022/01/02 02:55:44;;;;;;;30.42;15.02;;;;;;;;;;5036025;28;20456;-55
2022/01/02 02:58:38;;;;;;;27.85;14.13;;;;;;;;;;5035951;28;20025;-53
2022/01/02 03:00:56;;;;;;;26.13;14.48;;;;;;;;;;5035893;28;20180;-54
2022/01/02 03:03:22;;;;;;;21.10;11.55;;;;;;;;;;5035615;28;20021;-55
2022/01/02 03:05:49;;;;;;;20.08;11.18;;;;;;;;;;5035570;28;20346;-51
2022/01/02 03:08:15;;;;;;;22.00;10.63;;;;;;;;;;5035517;28;20028;-57
2022/01/02 03:10:41;;;;;;;26.17;12.75;;;;;;;;;;5035412;28;20025;-52
2022/01/02 03:13:07;;;;;;;42.22;21.73;;;;;;;;;;5035661;28;20112;-54
2022/01/02 03:15:33;;;;;;;47.70;24.42;;;;;;;;;;5034975;28;20083;-57
2022/01/02 03:18:00;;;;;;;45.92;22.98;;;;;;;;;;5035143;28;20071;-54
2022/01/02 03:20:26;;;;;;;43.90;22.70;;;;;;;;;;5034767;28;20025;-55
2022/01/02 03:22:52;;;;;;;56.58;26.15;;;;;;;;;;5035779;28;20025;-52
2022/01/02 03:25:18;;;;;;;58.35;27.73;;;;;;;;;;5035173;28;20021;-53
2022/01/02 03:27:45;;;;;;;53.35;25.52;;;;;;;;;;5035352;28;20047;-56
2022/01/02 03:30:12;;;;;;;47.85;23.83;;;;;;;;;;5035355;28;20084;-54
2022/01/02 03:32:38;;;;;;;55.83;26.65;;;;;;;;;;5035605;28;20383;-52
2022/01/02 03:35:05;;;;;;;42.97;23.13;;;;;;;;;;5034837;28;20025;-56
2022/01/02 03:37:33;;;;;;;44.55;22.38;;;;;;;;;;5035304;28;20021;-51
2022/01/02 03:40:00;;;;;;;43.63;22.27;;;;;;;;;;5035228;28;20029;-55
2022/01/02 03:42:26;;;;;;;41.60;20.55;;;;;;;;;;5034859;28;20053;-51
2022/01/02 03:44:52;;;;;;;38.00;18.23;;;;;;;;;;5035162;28;20022;-55
2022/01/02 03:47:19;;;;;;;33.90;16.42;;;;;;;;;;5034738;28;20029;-56
2022/01/02 03:49:45;;;;;;;31.85;15.32;;;;;;;;;;5034826;28;20047;-53
2022/01/02 03:52:11;;;;;;;24.55;13.82;;;;;;;;;;5034690;28;20033;-54
2022/01/02 03:54:37;;;;;;;28.27;13.70;;;;;;;;;;5034576;28;20022;-54
2022/01/02 03:57:04;;;;;;;19.60;11.88;;;;;;;;;;5034857;28;20609;-51
2022/01/02 03:59:30;;;;;;;23.17;10.73;;;;;;;;;;5034587;28;20036;-56
2022/01/02 04:01:56;;;;;;;22.55;11.55;;;;;;;;;;5034452;28;20026;-55
2022/01/02 04:04:22;;;;;;;25.52;13.18;;;;;;;;;;5034921;28;20022;-54
2022/01/02 04:06:48;;;;;;;22.75;11.75;;;;;;;;;;5034603;28;20101;-54
2022/01/02 04:09:14;;;;;;;24.02;12.10;;;;;;;;;;5033905;28;20033;-55
2022/01/02 04:11:41;;;;;;;22.63;11.88;;;;;;;;;;5034601;28;20112;-55
2022/01/02 04:14:07;;;;;;;24.30;11.63;;;;;;;;;;5034454;28;20451;-53
2022/01/02 04:16:34;;;;;;;25.52;12.30;;;;;;;;;;5034237;28;20379;-57
2022/01/02 04:19:00;;;;;;;21.77;11.45;;;;;;;;;;5034241;28;20017;-54
2022/01/02 04:21:26;;;;;;;22.50;11.43;;;;;;;;;;5034385;28;20014;-52
2022/01/02 04:23:52;;;;;;;19.95;10.85;;;;;;;;;;5034047;28;20022;-51
2022/01/02 04:26:18;;;;;;;23.73;11.88;;;;;;;;;;5033977;28;20100;-52
2022/01/02 04:28:45;;;;;;;21.80;11.15;;;;;;;;;;5034180;28;20032;-51
2022/01/02 04:31:11;;;;;;;26.70;13.63;;;;;;;;;;5032199;28;20057;-55
2022/01/02 04:33:38;;;;;;;21.48;12.63;;;;;;;;;;5034186;28;20033;-53
2022/01/02 04:36:04;;;;;;;25.48;12.10;;;;;;;;;;5033726;28;20503;-54
2022/01/02 04:38:31;;;;;;;23.13;12.40;;;;;;;;;;5033631;28;20038;-54
2022/01/02 04:40:57;;;;;;;24.60;11.63;;;;;;;;;;5033917;28;20100;-56
2022/01/02 04:43:23;;;;;;;21.05;11.60;;;;;;;;;;5033435;28;20431;-53
2022/01/02 04:45:49;;;;;;;22.35;12.13;;;;;;;;;;5034040;28;20028;-55
2022/01/02 04:48:15;;;;;;;21.25;11.90;;;;;;;;;;5033675;28;20135;-53
2022/01/02 04:50:41;;;;;;;24.30;11.32;;;;;;;;;;5033517;28;20109;-56
2022/01/02 04:53:08;;;;;;;17.45;8.90;;;;;;;;;;5033494;28;20480;-55
2022/01/02 04:55:34;;;;;;;17.10;9.45;;;;;;;;;;5033903;28;20460;-53
2022/01/02 04:58:01;;;;;;;17.77;9.80;;;;;;;;;;5033309;28;20021;-52
2022/01/02 05:00:27;;;;;;;31.73;17.80;;;;;;;;;;5033958;28;20116;-51
2022/01/02 05:02:53;;;;;;;28.40;15.40;;;;;;;;;;5033744;28;20094;-54
2022/01/02 05:05:19;;;;;;;26.73;12.30;;;;;;;;;;5033397;28;20096;-55
2022/01/02 05:07:45;;;;;;;21.38;11.65;;;;;;;;;;5033662;28;20100;-52
2022/01/02 05:10:12;;;;;;;34.28;16.48;;;;;;;;;;5033618;28;20052;-53
2022/01/02 05:12:38;;;;;;;66.55;33.15;;;;;;;;;;5033319;28;20025;-54
2022/01/02 05:15:05;;;;;;;61.42;30.15;;;;;;;;;;5033629;28;20078;-52
2022/01/02 05:17:31;;;;;;;53.70;26.02;;;;;;;;;;5033691;28;20024;-53
2022/01/02 05:19:57;;;;;;;39.65;21.55;;;;;;;;;;5033013;28;20118;-52
2022/01/02 05:22:23;;;;;;;38.42;20.17;;;;;;;;;;5033536;28;20091;-54
2022/01/02 05:24:50;;;;;;;40.33;21.60;;;;;;;;;;5033198;28;20025;-56
2022/01/02 05:27:16;;;;;;;37.83;19.67;;;;;;;;;;5033259;28;20018;-52
2022/01/02 05:29:42;;;;;;;26.85;15.13;;;;;;;;;;5033366;28;20383;-54
2022/01/02 05:32:08;;;;;;;38.10;18.63;;;;;;;;;;5033672;28;20021;-53
2022/01/02 05:34:34;;;;;;;37.47;19.08;;;;;;;;;;5033098;28;20456;-52
2022/01/02 05:37:00;;;;;;;38.33;20.95;;;;;;;;;;5033435;28;20052;-53
2022/01/02 05:39:26;;;;;;;45.40;22.83;;;;;;;;;;5033048;28;20036;-51
2022/01/02 05:41:53;;;;;;;54.17;27.92;;;;;;;;;;5033300;28;20476;-49
2022/01/02 05:44:20;;;;;;;50.15;26.85;;;;;;;;;;5037042;28;20044;-51
2022/01/02 05:46:47;;;;;;;53.13;28.38;;;;;;;;;;5036942;28;20128;-50
2022/01/02 05:49:14;;;;;;;53.97;26.98;;;;;;;;;;5037247;28;20036;-54
2022/01/02 05:51:40;;;;;;;56.25;27.35;;;;;;;;;;5037194;28;20017;-50
2022/01/02 05:54:06;;;;;;;70.20;35.42;;;;;;;;;;5036888;28;20026;-52
2022/01/02 05:56:33;;;;;;;68.97;35.75;;;;;;;;;;5037374;28;20026;-51
2022/01/02 05:58:59;;;;;;;79.10;38.15;;;;;;;;;;5036823;28;20052;-55
2022/01/02 06:01:25;;;;;;;60.72;30.45;;;;;;;;;;5036470;28;20025;-52
2022/01/02 06:03:52;;;;;;;58.58;30.52;;;;;;;;;;5037024;28;20014;-52
2022/01/02 06:06:18;;;;;;;50.95;25.52;;;;;;;;;;5036948;28;20460;-55
2022/01/02 06:08:45;;;;;;;32.55;17.35;;;;;;;;;;5036301;28;20044;-52
2022/01/02 06:11:11;;;;;;;44.95;22.60;;;;;;;;;;5036453;28;20058;-53
2022/01/02 06:13:37;;;;;;;28.45;16.48;;;;;;;;;;5036809;28;20452;-53
2022/01/02 06:16:03;;;;;;;41.78;18.67;;;;;;;;;;5036305;28;20025;-55
2022/01/02 06:18:29;;;;;;;39.25;20.15;;;;;;;;;;5036699;28;20068;-54
2022/01/02 06:20:56;;;;;;;33.88;17.05;;;;;;;;;;5036395;28;20055;-54
2022/01/02 06:23:22;;;;;;;34.47;18.15;;;;;;;;;;5036363;28;20088;-55
2022/01/02 06:25:48;;;;;;;37.70;20.10;;;;;;;;;;5036609;28;20022;-55
2022/01/02 06:28:15;;;;;;;36.42;18.55;;;;;;;;;;5036531;28;20098;-56
2022/01/02 06:30:41;;;;;;;38.40;20.05;;;;;;;;;;5036069;28;20065;-50
2022/01/02 06:33:07;;;;;;;41.72;21.35;;;;;;;;;;5036162;28;20028;-52
2022/01/02 06:35:34;;;;;;;35.90;20.02;;;;;;;;;;5035843;28;20029;-53
2022/01/02 06:38:00;;;;;;;39.47;21.27;;;;;;;;;;5036009;28;20029;-49
2022/01/02 06:40:27;;;;;;;54.75;26.65;;;;;;;;;;5036318;28;20066;-52
2022/01/02 06:42:53;;;;;;;45.95;23.67;;;;;;;;;;5036364;28;20053;-51
2022/01/02 06:45:19;;;;;;;36.90;19.27;;;;;;;;;;5035948;28;20026;-55
2022/01/02 06:47:46;;;;;;;33.30;18.48;;;;;;;;;;5036494;28;20052;-55
2022/01/02 06:50:12;;;;;;;26.27;15.10;;;;;;;;;;5035790;28;20040;-56
2022/01/02 06:52:39;;;;;;;28.02;13.82;;;;;;;;;;5036091;28;20025;-52
2022/01/02 06:55:05;;;;;;;24.25;12.35;;;;;;;;;;5035190;28;20028;-50
2022/01/02 06:57:32;;;;;;;21.42;12.00;;;;;;;;;;5035684;28;20025;-52
2022/01/02 06:59:58;;;;;;;20.67;11.45;;;;;;;;;;5035958;28;20045;-53
2022/01/02 07:02:24;;;;;;;27.33;15.45;;;;;;;;;;5035872;28;20079;-55
2022/01/02 07:04:50;;;;;;;112.30;57.45;;;;;;;;;;5035258;28;20148;-57
2022/01/02 07:07:16;;;;;;;136.30;68.18;;;;;;;;;;5035826;28;20028;-54
2022/01/02 07:09:42;;;;;;;112.55;55.58;;;;;;;;;;5035725;28;20032;-55
2022/01/02 07:12:09;;;;;;;130.02;67.15;;;;;;;;;;5035286;28;20017;-55
2022/01/02 07:14:38;;;;;;;137.00;68.10;;;;;;;;;;5035178;28;20025;-57
2022/01/02 07:17:05;;;;;;;121.68;58.55;;;;;;;;;;5035519;28;20017;-54
2022/01/02 07:19:31;;;;;;;99.35;50.53;;;;;;;;;;5033830;28;20068;-55
2022/01/02 07:21:58;;;;;;;89.45;43.45;;;;;;;;;;5034529;28;20037;-52
2022/01/02 07:24:25;;;;;;;82.78;42.97;;;;;;;;;;5033143;28;20018;-51
2022/01/02 07:26:51;;;;;;;78.68;40.78;;;;;;;;;;5033997;28;20101;-55
2022/01/02 07:29:19;;;;;;;75.53;36.67;;;;;;;;;;5034897;28;20028;-56
2022/01/02 07:31:45;;;;;;;63.05;35.78;;;;;;;;;;5034120;28;20047;-50
2022/01/02 07:34:11;;;;;;;59.78;31.77;;;;;;;;;;5035757;28;20072;-53
2022/01/02 07:36:44;;;;;;;52.45;31.00;;;;;;;;;;5034723;28;20022;-51
2022/01/02 07:39:11;;;;;;;66.57;35.40;;;;;;;;;;5034513;28;20052;-52
2022/01/02 07:41:37;;;;;;;77.10;39.95;;;;;;;;;;5034770;28;20056;-55
2022/01/02 07:44:03;;;;;;;89.40;48.17;;;;;;;;;;5034745;28;20052;-55
2022/01/02 07:46:31;;;;;;;87.75;48.60;;;;;;;;;;5034783;28;20031;-53
2022/01/02 07:48:57;;;;;;;101.25;58.00;;;;;;;;;;5034753;28;20055;-56
2022/01/02 07:51:23;;;;;;;98.57;54.70;;;;;;;;;;5034606;28;20038;-56
2022/01/02 07:53:50;;;;;;;92.82;52.08;;;;;;;;;;5034987;28;20029;-56
2022/01/02 07:56:16;;;;;;;79.03;44.05;;;;;;;;;;5034537;28;20403;-54
2022/01/02 07:58:42;;;;;;;71.50;40.47;;;;;;;;;;5034883;28;20076;-57
2022/01/02 08:01:08;;;;;;;62.38;34.47;;;;;;;;;;5034848;28;20029;-54
2022/01/02 08:03:34;;;;;;;57.83;32.38;;;;;;;;;;5034380;28;20061;-54
2022/01/02 08:06:00;;;;;;;57.88;32.03;;;;;;;;;;5034642;28;20021;-54
2022/01/02 08:08:27;;;;;;;48.50;28.98;;;;;;;;;;5034489;28;20030;-54
2022/01/02 08:10:53;;;;;;;58.72;32.25;;;;;;;;;;5034218;28;20166;-53
2022/01/02 08:13:19;;;;;;;48.40;27.25;;;;;;;;;;5034203;28;20526;-56
2022/01/02 08:15:48;;;;;;;47.40;28.35;;;;;;;;;;5034549;28;20071;-54
2022/01/02 08:18:14;;;;;;;39.42;24.25;;;;;;;;;;5034136;28;20107;-55
2022/01/02 08:20:40;;;;;;;34.67;21.98;;;;;;;;;;5034121;28;20083;-56
2022/01/02 08:23:07;;;;;;;36.70;18.63;;;;;;;;;;5034332;28;20435;-54
2022/01/02 08:25:33;;;;;;;31.20;18.15;;;;;;;;;;5033760;28;20526;-54
2022/01/02 08:27:59;;;;;;;26.17;16.13;;;;;;;;;;5034143;28;20032;-54
2022/01/02 08:30:25;;;;;;;24.95;15.50;;;;;;;;;;5033851;28;20033;-56
2022/01/02 08:32:51;;;;;;;23.90;14.35;;;;;;;;;;5033880;28;20022;-55
2022/01/02 08:35:17;;;;;;;24.05;13.82;;;;;;;;;;5034256;28;20029;-53
2022/01/02 08:37:43;;;;;;;24.38;15.45;;;;;;;;;;5038102;28;20066;-52
2022/01/02 08:40:10;;;;;;;23.60;14.68;;;;;;;;;;5042746;28;20029;-53
2022/01/02 08:42:36;;;;;;;17.98;11.57;;;;;;;;;;5044006;28;20043;-55
2022/01/02 08:45:02;;;;;;;20.73;12.70;;;;;;;;;;5035470;28;20032;-55
2022/01/02 08:47:28;;;;;;;21.27;12.52;;;;;;;;;;5033285;28;20373;-56
2022/01/02 08:49:54;;;;;;;17.65;10.23;;;;;;;;;;5033398;28;20029;-53
2022/01/02 08:52:21;;;;;;;21.30;11.55;;;;;;;;;;5032348;28;20032;-53
2022/01/02 08:54:48;;;;;;;23.20;10.75;;;;;;;;;;5033082;28;20047;-52
2022/01/02 08:57:14;;;;;;;19.00;11.18;;;;;;;;;;5033418;28;20021;-51
2022/01/02 08:59:40;;;;;;;18.60;11.88;;;;;;;;;;5032459;28;20022;-54
2022/01/02 09:02:06;;;;;;;18.73;11.27;;;;;;;;;;5033022;28;20021;-52
2022/01/02 09:04:32;;;;;;;26.77;15.95;;;;;;;;;;5032941;28;20519;-54
2022/01/02 09:06:59;;;;;;;30.35;18.73;;;;;;;;;;5032578;28;20040;-55
2022/01/02 09:09:25;;;;;;;31.13;17.73;;;;;;;;;;5030004;28;20045;-56
2022/01/02 09:11:51;;;;;;;32.50;19.90;;;;;;;;;;5032695;28;20387;-54
2022/01/02 09:14:18;;;;;;;29.33;17.08;;;;;;;;;;5032751;28;20426;-54
2022/01/02 09:16:44;;;;;;;25.17;14.85;;;;;;;;;;5033085;28;20034;-55
2022/01/02 09:19:11;;;;;;;22.00;14.90;;;;;;;;;;5032581;28;20025;-53
2022/01/02 09:21:37;;;;;;;27.17;15.90;;;;;;;;;;5032368;28;20020;-55
2022/01/02 09:24:04;;;;;;;22.60;14.43;;;;;;;;;;5032692;28;20026;-56
2022/01/02 09:26:30;;;;;;;25.25;14.32;;;;;;;;;;5032687;28;20353;-51
2022/01/02 09:28:57;;;;;;;23.90;13.50;;;;;;;;;;5032625;28;20028;-56
2022/01/02 09:31:23;;;;;;;21.35;12.73;;;;;;;;;;5032933;28;20071;-52
2022/01/02 09:33:49;;;;;;;17.40;11.20;;;;;;;;;;5031520;28;20484;-54
2022/01/02 09:36:15;;;;;;;15.85;9.93;;;;;;;;;;5032881;28;20026;-55
2022/01/02 09:38:42;;;;;;;19.00;10.82;;;;;;;;;;5032547;28;20031;-52
2022/01/02 09:41:08;;;;;;;15.90;10.60;;;;;;;;;;5032180;28;20627;-55
2022/01/02 09:43:34;;;;;;;19.75;10.90;;;;;;;;;;5035309;28;20022;-55
2022/01/02 09:46:02;;;;;;;15.32;10.15;;;;;;;;;;5032779;28;20101;-54
2022/01/02 09:48:29;;;;;;;16.58;10.23;;;;;;;;;;5032419;28;20029;-56
2022/01/02 09:50:56;;;;;;;17.52;11.35;;;;;;;;;;5030143;28;20048;-55
2022/01/02 09:53:23;;;;;;;19.63;12.50;;;;;;;;;;5033054;28;20363;-54
2022/01/02 09:55:49;;;;;;;19.13;11.90;;;;;;;;;;5032460;28;20024;-52
2022/01/02 09:58:16;;;;;;;19.92;12.73;;;;;;;;;;5030131;28;20039;-55
2022/01/02 10:00:48;;;;;;;19.08;11.00;;;;;;;;;;5032243;28;20018;-54
2022/01/02 10:03:15;;;;;;;18.33;10.45;;;;;;;;;;5032624;28;20456;-53
2022/01/02 10:05:52;;;;;;;19.77;11.07;;;;;;;;;;5033033;28;20026;-55
2022/01/02 10:08:23;;;;;;;22.42;11.50;;;;;;;;;;5033057;28;20095;-53
2022/01/02 10:10:57;;;;;;;14.30;9.05;;;;;;;;;;5032531;28;20037;-50
2022/01/02 10:13:36;;;;;;;14.30;7.72;;;;;;;;;;5033235;28;20041;-54
2022/01/02 10:16:02;;;;;;;17.95;9.88;;;;;;;;;;5032519;28;20017;-54
2022/01/02 10:18:28;;;;;;;14.93;9.57;;;;;;;;;;5015177;28;20032;-55
2022/01/02 10:21:00;;;;;;;17.23;10.02;;;;;;;;;;5032961;28;20479;-53
2022/01/02 10:23:27;;;;;;;15.45;10.70;;;;;;;;;;5032631;28;20068;-53
2022/01/02 10:25:54;;;;;;;18.63;10.30;;;;;;;;;;5033105;28;20033;-55
2022/01/02 10:28:20;;;;;;;16.60;11.13;;;;;;;;;;5032788;28;20028;-54
2022/01/02 10:30:47;;;;;;;17.45;11.23;;;;;;;;;;5034714;28;20029;-52
2022/01/02 10:33:13;;;;;;;20.17;11.13;;;;;;;;;;5036307;28;20095;-53
2022/01/02 10:35:41;;;;;;;18.77;11.00;;;;;;;;;;5036090;28;20117;-53
2022/01/02 10:38:07;;;;;;;15.75;10.02;;;;;;;;;;5035931;28;20057;-54
2022/01/02 10:40:35;;;;;;;14.73;8.85;;;;;;;;;;5035971;28;20033;-53
2022/01/02 10:43:06;;;;;;;12.70;7.88;;;;;;;;;;5035911;28;20061;-56
2022/01/02 10:45:35;;;;;;;22.50;12.95;;;;;;;;;;5036082;28;20433;-58
2022/01/02 10:48:03;;;;;;;16.52;10.20;;;;;;;;;;5035394;28;20534;-54
2022/01/02 10:50:30;;;;;;;11.65;6.85;;;;;;;;;;5035254;28;20468;-57
2022/01/02 10:52:56;;;;;;;12.98;8.15;;;;;;;;;;5035333;28;20104;-51
2022/01/02 10:55:23;;;;;;;11.88;7.05;;;;;;;;;;5035544;28;20375;-53
2022/01/02 10:57:51;;;;;;;9.73;7.13;;;;;;;;;;5035668;28;20518;-56
2022/01/02 11:00:18;;;;;;;14.07;7.88;;;;;;;;;;5035893;28;20037;-53
2022/01/02 11:02:45;;;;;;;14.05;8.15;;;;;;;;;;5035605;28;20014;-56
2022/01/02 11:05:12;;;;;;;9.63;6.22;;;;;;;;;;5035434;28;20018;-59
2022/01/02 11:07:38;;;;;;;12.07;6.72;;;;;;;;;;5035053;28;20534;-57
2022/01/02 11:10:07;;;;;;;10.35;6.47;;;;;;;;;;5035101;28;20025;-50
2022/01/02 11:12:34;;;;;;;11.48;7.15;;;;;;;;;;5034881;28;20628;-53
2022/01/02 11:15:32;;;;;;;10.50;6.82;;;;;;;;;;5035220;28;20384;-58
2022/01/02 11:17:59;;;;;;;11.88;6.78;;;;;;;;;;5032591;28;20024;-58
2022/01/02 11:20:27;;;;;;;39.40;25.85;;;;;;;;;;5034716;28;20021;-53
2022/01/02 11:23:03;;;;;;;10.45;6.05;;;;;;;;;;5034990;28;20067;-58
2022/01/02 11:25:40;;;;;;;13.55;7.25;;;;;;;;;;5034946;28;20092;-56
2022/01/02 11:28:17;;;;;;;9.80;6.38;;;;;;;;;;5034375;28;20036;-59
2022/01/02 11:30:43;;;;;;;9.35;6.10;;;;;;;;;;5033350;28;20468;-56
2022/01/02 11:33:13;;;;;;;8.27;6.03;;;;;;;;;;5034274;28;20108;-54
2022/01/02 11:35:40;;;;;;;36.37;22.37;;;;;;;;;;5032533;28;20022;-56
2022/01/02 11:38:16;;;;;;;9.82;6.47;;;;;;;;;;5034531;28;20667;-59
2022/01/02 11:40:56;;;;;;;;;;;;;;;;;;5031217;28;20021;-61
2022/01/02 11:44:02;;;;;;;12.05;7.32;;;;;;;;;;5028682;28;19916;-61
2022/01/02 11:46:38;;;;;;;14.50;7.38;;;;;;;;;;5032459;28;20018;-56
2022/01/02 11:49:21;;;;;;;11.93;6.53;;;;;;;;;;5034326;28;20387;-58
2022/01/02 11:51:51;;;;;;;10.52;6.63;;;;;;;;;;5031500;28;20057;-57
2022/01/02 11:54:47;;;;;;;8.52;6.20;;;;;;;;;;5033862;28;20021;-56
2022/01/02 11:57:18;;;;;;;11.27;6.85;;;;;;;;;;5032902;28;20022;-53
2022/01/02 11:59:44;;;;;;;9.23;6.57;;;;;;;;;;5031817;28;20021;-53
2022/01/02 12:02:13;;;;;;;12.75;6.85;;;;;;;;;;5034260;28;20446;-54
2022/01/02 12:05:19;;;;;;;9.82;6.28;;;;;;;;;;5034428;28;20061;-54
2022/01/02 12:07:53;;;;;;;13.57;7.28;;;;;;;;;;5033673;28;20068;-51
2022/01/02 12:10:26;;;;;;;13.20;8.55;;;;;;;;;;5034196;28;20033;-57
2022/01/02 12:13:17;;;;;;;13.43;7.72;;;;;;;;;;5034723;28;20022;-55
2022/01/02 12:15:44;;;;;;;9.75;6.70;;;;;;;;;;5034229;28;20037;-56
2022/01/02 12:18:16;;;;;;;10.63;6.68;;;;;;;;;;5033482;28;20388;-56
2022/01/02 12:21:00;;;;;;;9.82;6.00;;;;;;;;;;5034073;28;20033;-54
2022/01/02 12:23:35;;;;;;;7.18;5.43;;;;;;;;;;5033586;28;20025;-53
2022/01/02 12:26:03;;;;;;;8.70;5.68;;;;;;;;;;5034264;28;20025;-57
2022/01/02 12:28:58;;;;;;;11.43;6.07;;;;;;;;;;5034251;28;20018;-53
2022/01/02 12:31:32;;;;;;;7.93;5.47;;;;;;;;;;5034459;28;20029;-52
2022/01/02 12:34:13;;;;;;;9.27;5.72;;;;;;;;;;5033912;28;20389;-57
2022/01/02 12:36:41;;;;;;;8.80;5.65;;;;;;;;;;5033543;28;20056;-52
2022/01/02 12:39:37;;;;;;;7.82;5.45;;;;;;;;;;5034130;28;20383;-53
2022/01/02 12:42:03;;;;;;;7.93;4.93;;;;;;;;;;5025211;28;20478;-57
2022/01/02 12:44:30;;;;;;;11.98;5.55;;;;;;;;;;5033394;28;20040;-56
2022/01/02 12:46:58;;;;;;;8.45;4.43;;;;;;;;;;5033912;28;20471;-54
2022/01/02 12:49:35;;;;;;;9.60;4.45;;;;;;;;;;5033879;28;20026;-55
2022/01/02 12:52:05;;;;;;;6.72;4.40;;;;;;;;;;5032811;28;20017;-55
2022/01/02 12:54:33;;;;;;;4.43;2.88;;;;;;;;;;5034135;28;20083;-57
2022/01/02 12:57:01;;;;;;;4.45;3.00;;;;;;;;;;5032858;28;20029;-51
2022/01/02 12:59:37;;;;;;;3.30;2.40;;;;;;;;;;5033385;28;20034;-56
2022/01/02 13:02:03;;;;;;;5.20;2.50;;;;;;;;;;5033737;28;20376;-54
2022/01/02 13:04:31;;;;;;;3.70;2.35;;;;;;;;;;5033279;28;20045;-54
2022/01/02 13:06:58;;;;;;;5.30;2.40;;;;;;;;;;5015855;28;20021;-50
2022/01/02 13:09:27;;;;;;;4.65;2.05;;;;;;;;;;5033178;28;20029;-53
2022/01/02 13:11:54;;;;;;;3.20;2.10;;;;;;;;;;5031399;28;20121;-54
2022/01/02 13:14:33;;;;;;;3.60;1.90;;;;;;;;;;5031511;28;20029;-54
2022/01/02 13:17:00;;;;;;;6.05;3.53;;;;;;;;;;5031523;28;20025;-53
2022/01/02 13:19:27;;;;;;;5.88;3.75;;;;;;;;;;5032906;28;20384;-52
2022/01/02 13:21:54;;;;;;;7.03;4.32;;;;;;;;;;5033499;28;20018;-50
2022/01/02 13:24:27;;;;;;;5.53;2.90;;;;;;;;;;5033373;28;20060;-54
2022/01/02 13:26:53;;;;;;;5.07;2.70;;;;;;;;;;5033345;28;20021;-54
2022/01/02 13:29:22;;;;;;;5.78;3.50;;;;;;;;;;5033503;28;20021;-55
2022/01/02 13:31:48;;;;;;;14.68;6.72;;;;;;;;;;5033099;28;20049;-55
2022/01/02 13:34:23;;;;;;;12.80;6.88;;;;;;;;;;5033067;28;20083;-52
2022/01/02 13:36:57;;;;;;;8.02;5.13;;;;;;;;;;5033344;28;20429;-54
2022/01/02 13:39:42;;;;;;;9.73;5.88;;;;;;;;;;5032988;28;20031;-56
2022/01/02 13:42:10;;;;;;;9.65;5.97;;;;;;;;;;5033290;28;20049;-56
2022/01/02 13:44:39;;;;;;;11.15;6.68;;;;;;;;;;5033270;28;20376;-56
2022/01/02 13:47:05;;;;;;;9.73;6.05;;;;;;;;;;5033004;28;20499;-56
2022/01/02 13:49:44;;;;;;;12.43;7.55;;;;;;;;;;5032921;28;20029;-54
2022/01/02 13:52:10;;;;;;;12.25;6.68;;;;;;;;;;5033177;28;20041;-51
2022/01/02 13:54:36;;;;;;;15.50;8.80;;;;;;;;;;5032797;28;20048;-53
2022/01/02 13:57:07;;;;;;;16.15;8.75;;;;;;;;;;5033051;28;20026;-52
2022/01/02 13:59:34;;;;;;;16.85;9.77;;;;;;;;;;5033147;28;20036;-54
2022/01/02 14:02:00;;;;;;;20.73;12.05;;;;;;;;;;5032482;28;20072;-49
2022/01/02 14:04:26;;;;;;;14.85;9.18;;;;;;;;;;5035046;28;20018;-53
2022/01/02 14:06:52;;;;;;;15.40;8.88;;;;;;;;;;5036473;28;20022;-50
2022/01/02 14:09:19;;;;;;;16.95;9.25;;;;;;;;;;5036223;28;20026;-52
2022/01/02 14:11:47;;;;;;;21.95;10.82;;;;;;;;;;5035996;28;20043;-52
2022/01/02 14:19:31;;;;;;;24.45;13.07;;;;;;;;;;5036494;28;20456;-51
2022/01/02 14:21:57;;;;;;;40.17;19.83;;;;;;;;;;5036450;28;20069;-53
2022/01/02 14:24:24;;;;;;;32.10;16.88;;;;;;;;;;5036280;28;20026;-54
2022/01/02 14:26:50;;;;;;;21.73;12.10;;;;;;;;;;5035921;28;20021;-54
2022/01/02 14:29:17;;;;;;;27.90;15.30;;;;;;;;;;5033997;28;20361;-51
2022/01/02 14:31:43;;;;;;;36.13;20.90;;;;;;;;;;5035485;28;20028;-51
2022/01/02 14:34:09;;;;;;;36.15;20.02;;;;;;;;;;5036280;28;20464;-53
2022/01/02 14:36:36;;;;;;;36.78;20.38;;;;;;;;;;5036166;28;20030;-52
2022/01/02 14:39:02;;;;;;;37.83;20.40;;;;;;;;;;5036409;28;20026;-51
2022/01/02 14:41:28;;;;;;;31.25;18.00;;;;;;;;;;5036216;28;20033;-55